createdAt,value
2023-04-24T00:04:29.315Z,0.93
2023-04-24T00:09:31.087Z,1.00
2023-04-24T00:14:32.996Z,0.90
2023-04-24T00:19:35.423Z,0.70
2023-04-24T00:24:36.993Z,0.80
2023-04-24T00:29:38.567Z,0.90
2023-04-24T00:34:40.519Z,1.00
2023-04-24T00:39:44.470Z,1.00
2023-04-24T00:44:46.836Z,0.90
2023-04-24T00:49:48.454Z,0.70
2023-04-24T00:54:50.042Z,0.70
2023-04-24T00:59:53.284Z,0.68
2023-04-24T01:04:55.063Z,0.60
2023-04-24T01:09:56.878Z,0.80
2023-04-24T01:15:00.502Z,0.70
2023-04-24T01:20:03.349Z,1.00
2023-04-24T01:25:09.132Z,1.00
2023-04-24T01:30:11.672Z,0.90
2023-04-24T01:35:13.815Z,0.68
2023-04-24T01:40:15.474Z,0.93
2023-04-24T01:45:17.161Z,0.38
2023-04-24T01:50:19.661Z,0.50
2023-04-24T01:55:21.653Z,0.47
2023-04-24T02:00:23.488Z,0.40
2023-04-24T02:05:25.277Z,0.40
2023-04-24T02:10:26.945Z,0.20
2023-04-24T02:15:28.768Z,0.25
2023-04-24T02:20:31.707Z,0.10
2023-04-24T02:25:34.756Z,0.17
2023-04-24T02:30:36.477Z,0.25
2023-04-24T02:35:38.284Z,0.10
2023-04-24T02:40:40.323Z,0.10
2023-04-24T02:45:43.812Z,0.30
2023-04-24T02:50:45.528Z,0.38
2023-04-24T02:55:47.930Z,0.38
2023-04-24T03:00:49.633Z,0.45
2023-04-24T03:05:51.397Z,0.70
2023-04-24T03:10:53.327Z,0.50
2023-04-24T03:15:57.943Z,0.57
2023-04-24T03:20:59.721Z,0.40
2023-04-24T03:26:01.665Z,0.40
2023-04-24T03:31:04.887Z,0.30
2023-04-24T03:36:12.201Z,0.30
2023-04-24T03:41:16.417Z,0.30
2023-04-24T03:46:22.381Z,0.55
2023-04-24T03:51:31.340Z,0.50
2023-04-24T03:56:40.483Z,0.20
2023-04-24T04:01:44.221Z,0.30
2023-04-24T04:06:50.028Z,0.30
2023-04-24T04:11:51.812Z,0.70
2023-04-24T04:16:54.981Z,0.43
2023-04-24T04:21:57.308Z,0.40
2023-04-24T04:27:17.555Z,0.70
2023-04-24T04:37:29.855Z,0.40
2023-04-24T04:42:47.128Z,0.82
2023-04-24T04:47:49.742Z,0.50
2023-04-24T04:52:51.470Z,1.27
2023-04-24T04:58:01.426Z,1.20
2023-04-24T05:03:19.074Z,2.13
2023-04-24T05:13:39.185Z,5.88
2023-04-24T05:23:52.530Z,6.03
2023-04-24T05:29:06.894Z,6.03
2023-04-24T05:34:09.688Z,5.38
2023-04-24T05:39:16.194Z,6.00
2023-04-24T05:44:18.125Z,3.67
2023-04-24T05:49:19.801Z,4.80
2023-04-24T05:54:22.315Z,4.22
2023-04-24T05:59:24.337Z,4.07
2023-04-24T06:04:27.253Z,5.55
2023-04-24T06:09:29.121Z,4.47
2023-04-24T06:14:30.919Z,4.30
2023-04-24T06:19:48.961Z,4.05
2023-04-24T06:24:51.004Z,4.47
2023-04-24T06:29:55.610Z,3.70
2023-04-24T06:34:59.094Z,4.75
2023-04-24T06:40:01.246Z,2.97
2023-04-24T06:45:04.329Z,4.45
2023-04-24T06:50:06.584Z,3.25
2023-04-24T06:55:08.977Z,4.25
2023-04-24T07:00:11.353Z,3.92
2023-04-24T07:05:16.320Z,3.35
2023-04-24T07:10:19.184Z,2.35
2023-04-24T07:15:20.920Z,3.53
2023-04-24T07:20:22.908Z,3.05
2023-04-24T07:25:24.977Z,2.60
2023-04-24T07:30:27.069Z,2.75
2023-04-24T07:35:38.012Z,1.98
2023-04-24T07:40:39.592Z,2.55
2023-04-24T07:45:41.792Z,2.80
2023-04-24T07:50:45.696Z,1.90
2023-04-24T07:55:47.356Z,2.33
2023-04-24T08:00:48.975Z,2.65
2023-04-24T08:05:52.072Z,2.63
2023-04-24T08:10:53.905Z,2.20
2023-04-24T08:15:55.628Z,3.67
2023-04-24T08:21:02.205Z,3.88
2023-04-24T08:26:04.546Z,2.60
2023-04-24T08:31:06.501Z,2.58
2023-04-24T08:36:08.656Z,2.20
2023-04-24T08:41:11.144Z,2.58
2023-04-24T08:46:16.877Z,2.13
2023-04-24T08:51:19.185Z,2.22
2023-04-24T08:56:24.478Z,2.70
2023-04-24T09:01:26.457Z,2.53
2023-04-24T09:06:29.087Z,2.20
2023-04-24T09:11:32.901Z,2.25
2023-04-24T09:16:37.018Z,0.88
2023-04-24T09:21:41.385Z,1.90
2023-04-24T09:26:50.055Z,1.48
2023-04-24T09:31:52.284Z,1.55
2023-04-24T09:36:54.827Z,1.10
2023-04-24T09:42:01.934Z,1.50
2023-04-24T09:47:03.600Z,1.77
2023-04-24T09:52:10.956Z,1.33
2023-04-24T09:57:15.774Z,1.30
2023-04-24T10:02:21.471Z,1.38
2023-04-24T10:07:23.766Z,1.75
2023-04-24T10:12:26.484Z,1.05
2023-04-24T10:17:29.491Z,0.80
2023-04-24T10:22:31.542Z,1.05
2023-04-24T10:27:33.384Z,1.27
2023-04-24T10:32:35.054Z,1.20
2023-04-24T10:37:40.796Z,0.90
2023-04-24T10:42:49.461Z,1.33
2023-04-24T10:48:07.689Z,1.02
2023-04-24T10:53:15.773Z,1.33
2023-04-24T10:58:22.784Z,1.55
2023-04-24T11:03:27.545Z,1.15
2023-04-24T11:08:39.045Z,1.10
2023-04-24T11:13:56.447Z,1.10
2023-04-24T11:19:02.062Z,1.58
2023-04-24T11:24:28.966Z,1.60
2023-04-24T11:29:45.015Z,1.67
2023-04-24T11:34:48.729Z,2.10
2023-04-24T11:39:59.617Z,2.45
2023-04-24T11:45:03.079Z,2.08
2023-04-24T11:50:08.635Z,2.53
2023-04-24T11:55:31.206Z,2.63
2023-04-24T12:00:35.386Z,2.65
2023-04-24T12:05:37.693Z,4.20
2023-04-24T12:10:39.989Z,3.83
2023-04-24T12:15:43.079Z,2.83
2023-04-24T12:20:44.897Z,3.63
2023-04-24T12:25:46.504Z,3.35
2023-04-24T12:30:49.951Z,3.05
2023-04-24T12:35:55.554Z,3.40
2023-04-24T12:41:05.526Z,3.00
2023-04-24T12:51:08.732Z,4.18
2023-04-24T12:56:19.484Z,3.47
2023-04-24T13:01:21.142Z,2.88
2023-04-24T13:06:22.870Z,2.97
2023-04-24T13:11:25.457Z,3.40
2023-04-24T13:16:27.104Z,4.03
2023-04-24T13:21:31.244Z,2.42
2023-04-24T13:26:32.889Z,2.90
2023-04-24T13:31:34.569Z,2.65
2023-04-24T13:36:36.280Z,3.53
2023-04-24T13:41:37.947Z,2.75
2023-04-24T13:46:41.988Z,2.60
2023-04-24T13:51:44.640Z,2.60
2023-04-24T13:56:46.424Z,3.15
2023-04-24T14:01:48.926Z,2.70
2023-04-24T14:06:51.496Z,2.95
2023-04-24T14:11:53.465Z,3.17
2023-04-24T14:16:55.125Z,3.80
2023-04-24T14:21:57.897Z,3.67
2023-04-24T14:26:59.545Z,3.97
2023-04-24T14:32:01.310Z,3.63
2023-04-24T14:37:03.368Z,4.32
2023-04-24T14:42:05.010Z,3.75
2023-04-24T14:47:06.954Z,4.10
2023-04-24T14:52:08.635Z,3.10
2023-04-24T14:57:10.357Z,3.50
2023-04-24T15:02:16.326Z,3.42
2023-04-24T15:07:18.557Z,3.50
2023-04-24T15:12:22.597Z,3.65
2023-04-24T15:17:24.331Z,3.15
2023-04-24T15:22:27.099Z,3.05
2023-04-24T15:27:28.756Z,2.97
2023-04-24T15:32:30.543Z,3.40
2023-04-24T15:37:32.362Z,2.88
2023-04-24T15:42:34.061Z,2.85
2023-04-24T15:47:36.366Z,2.78
2023-04-24T15:52:38.094Z,2.97
2023-04-24T15:57:40.352Z,3.05
2023-04-24T16:02:45.373Z,2.80
2023-04-24T16:07:48.616Z,3.13
2023-04-24T16:12:51.782Z,2.85
2023-04-24T16:17:53.401Z,4.03
2023-04-24T16:22:55.061Z,3.15
2023-04-24T16:27:57.212Z,3.47
2023-04-24T16:32:59.097Z,3.45
2023-04-24T16:38:02.304Z,2.45
2023-04-24T16:43:03.984Z,3.72
2023-04-24T16:48:05.807Z,3.33
2023-04-24T16:53:07.551Z,3.20
2023-04-24T16:58:09.235Z,2.55
2023-04-24T17:03:12.420Z,5.47
2023-04-24T17:08:15.002Z,2.85
2023-04-24T17:13:16.625Z,3.00
2023-04-24T17:18:18.396Z,3.15
2023-04-24T17:23:21.077Z,2.20
2023-04-24T17:28:31.148Z,3.50
2023-04-24T17:33:32.982Z,2.15
2023-04-24T17:38:34.812Z,1.80
2023-04-24T17:43:38.339Z,1.65
2023-04-24T17:48:40.128Z,1.65
2023-04-24T17:53:43.489Z,1.23
2023-04-24T17:58:45.455Z,1.30
2023-04-24T18:03:47.393Z,1.40
2023-04-24T18:08:49.375Z,1.15
2023-04-24T18:13:51.483Z,1.20
2023-04-24T18:18:53.990Z,1.13
2023-04-24T18:23:55.849Z,1.65
2023-04-24T18:28:57.526Z,0.98
2023-04-24T18:33:59.241Z,1.90
2023-04-24T18:39:00.920Z,1.20
2023-04-24T18:44:02.529Z,1.10
2023-04-24T18:49:04.552Z,1.05
2023-04-24T18:54:06.243Z,1.02
2023-04-24T18:59:07.957Z,1.13
2023-04-24T19:04:09.557Z,1.95
2023-04-24T19:09:11.150Z,0.90
2023-04-24T19:14:16.318Z,0.80
2023-04-24T19:19:18.039Z,1.88
2023-04-24T19:24:21.169Z,1.77
2023-04-24T19:29:22.961Z,1.70
2023-04-24T19:34:25.224Z,1.25
2023-04-24T19:39:26.984Z,2.17
2023-04-24T19:44:28.637Z,1.45
2023-04-24T19:49:30.946Z,1.55
2023-04-24T19:54:32.518Z,1.60
2023-04-24T19:59:34.190Z,1.70
2023-04-24T20:04:36.126Z,1.63
2023-04-24T20:09:38.113Z,1.20
2023-04-24T20:14:39.732Z,0.95
2023-04-24T20:19:44.678Z,1.08
2023-04-24T20:24:46.566Z,1.83
2023-04-24T20:29:48.199Z,2.55
2023-04-24T20:34:49.872Z,2.60
2023-04-24T20:39:52.057Z,3.13
2023-04-24T20:44:53.689Z,2.13
2023-04-24T20:49:55.361Z,2.40
2023-04-24T20:54:57.173Z,2.85
2023-04-24T20:59:58.891Z,1.85
2023-04-24T21:05:04.124Z,2.28
2023-04-24T21:10:06.330Z,2.28
2023-04-24T21:15:08.392Z,2.70
2023-04-24T21:20:10.561Z,2.10
2023-04-24T21:25:12.258Z,2.78
2023-04-24T21:30:15.122Z,3.17
2023-04-24T21:35:16.764Z,2.72
2023-04-24T21:40:18.508Z,3.35
2023-04-24T21:45:20.569Z,3.35
2023-04-24T21:50:22.163Z,2.60
2023-04-24T21:55:24.142Z,2.80
2023-04-24T22:00:25.933Z,3.15
2023-04-24T22:05:27.836Z,3.08
2023-04-24T22:10:29.725Z,3.40
2023-04-24T22:15:31.536Z,2.90
2023-04-24T22:20:33.607Z,3.30
2023-04-24T22:25:35.521Z,3.13
2023-04-24T22:30:37.177Z,2.70
2023-04-24T22:35:38.792Z,3.60
2023-04-24T22:40:42.494Z,2.90
2023-04-24T22:45:44.203Z,3.28
2023-04-24T22:50:45.970Z,3.05
2023-04-24T22:55:47.572Z,3.33
2023-04-24T23:00:49.270Z,2.80
2023-04-24T23:05:50.897Z,2.67
2023-04-24T23:10:52.972Z,2.20
2023-04-24T23:15:54.917Z,2.72
2023-04-24T23:20:57.282Z,2.40
2023-04-24T23:25:59.758Z,2.55
2023-04-24T23:31:01.385Z,2.53
2023-04-24T23:36:03.379Z,2.72
2023-04-24T23:41:05.105Z,2.90
2023-04-24T23:46:07.399Z,1.83
2023-04-24T23:51:09.109Z,1.75
2023-04-24T23:56:11.291Z,1.98
